Time;durP1;ratioP1;P1;durP2;ratioP2;P2;SDS_P1;SDS_P2;PMS_P1;PMS_P2;Temp;Humidity;BMP_temperature;BMP_pressure;BME280_temperature;BME280_humidity;BME280_pressure;Samples;Min_cycle;Max_cycle;Signal;HPM_P1;HPM_P2
2022/12/19 00:01:35;;;;;;;;;30.00;23.00;;;;;-12.38;86.82;100520.84;4946287;28;104035;-65
2022/12/19 00:04:07;;;;;;;;;34.50;29.75;;;;;-12.49;85.90;100512.25;4934884;28;102179;-65
2022/12/19 00:06:37;;;;;;;;;27.00;18.75;;;;;-12.45;88.00;100508.72;4940929;28;102431;-65
2022/12/19 00:09:10;;;;;;;;;25.50;21.25;;;;;-12.42;88.03;100513.91;4938450;28;101977;-65
2022/12/19 00:11:37;;;;;;;;;42.50;34.25;;;;;-12.55;86.35;100499.25;4932206;28;103977;-65
2022/12/19 00:14:05;;;;;;;;;62.00;50.25;;;;;-13.11;83.35;100495.34;4929957;28;102337;-65
2022/12/19 00:16:32;;;;;;;;;44.75;35.75;;;;;-13.26;83.94;100491.06;4935473;28;102968;-65
2022/12/19 00:19:00;;;;;;;;;39.50;27.25;;;;;-13.39;84.87;100478.13;4930728;28;102082;-65
2022/12/19 00:21:30;;;;;;;;;44.50;34.25;;;;;-13.18;87.28;100483.22;4932377;28;104068;-65
2022/12/19 00:24:02;;;;;;;;;49.25;34.25;;;;;-12.99;87.87;100477.00;4929226;28;102332;-65
2022/12/19 00:26:35;;;;;;;;;34.50;25.50;;;;;-12.54;91.81;100477.53;4932263;28;102372;-65
2022/12/19 00:29:05;;;;;;;;;28.50;23.50;;;;;-12.68;87.23;100481.13;4930172;28;102261;-66
2022/12/19 00:31:39;;;;;;;;;38.50;30.25;;;;;-12.80;85.33;100475.16;4930207;28;104022;-66
2022/12/19 00:34:08;;;;;;;;;51.25;36.50;;;;;-12.91;84.69;100477.81;4933926;28;104050;-65
2022/12/19 00:36:34;;;;;;;;;50.25;39.50;;;;;-12.89;87.33;100476.09;4931257;28;104184;-65
2022/12/19 00:39:04;;;;;;;;;38.00;30.25;;;;;-12.82;87.47;100480.34;4936389;28;103933;-65
2022/12/19 00:41:36;;;;;;;;;32.75;27.00;;;;;-12.73;87.88;100482.91;4941016;28;104012;-65
2022/12/19 00:44:11;;;;;;;;;29.50;24.25;;;;;-12.56;88.81;100468.91;4932014;28;102715;-65
2022/12/19 00:46:38;;;;;;;;;21.50;18.25;;;;;-12.42;88.33;100472.22;4935423;28;103326;-66
2022/12/19 00:49:05;;;;;;;;;18.75;16.50;;;;;-12.32;89.29;100468.66;4936201;28;102448;-65
2022/12/19 00:51:34;;;;;;;;;19.75;17.75;;;;;-12.30;87.55;100459.09;4932416;28;103996;-66
2022/12/19 00:54:02;;;;;;;;;36.25;30.00;;;;;-12.41;86.60;100468.75;4933662;28;102614;-65
2022/12/19 00:56:34;;;;;;;;;32.00;26.75;;;;;-12.37;89.08;100462.63;4931270;28;102321;-65
2022/12/19 00:59:03;;;;;;;;;27.00;22.00;;;;;-12.38;86.01;100463.53;4939409;28;102319;-66
2022/12/19 01:01:39;;;;;;;;;30.75;24.75;;;;;-12.48;84.25;100467.97;4934838;28;104013;-64
2022/12/19 01:04:12;;;;;;;;;25.00;21.75;;;;;-12.65;84.96;100464.59;4933202;28;102523;-66
2022/12/19 01:06:57;;;;;;;;;26.00;20.00;;;;;-12.55;87.50;100460.19;4930109;28;102589;-66
2022/12/19 01:09:29;;;;;;;;;40.00;27.25;;;;;-12.59;87.21;100463.69;4934030;28;103046;-65
2022/12/19 01:14:42;;;;;;;;;26.50;19.25;;;;;-12.44;88.75;100454.03;4930454;28;104555;-64
2022/12/19 01:17:09;;;;;;;;;22.25;20.00;;;;;-12.33;87.82;100451.28;4915450;28;102054;-64
2022/12/19 01:19:36;;;;;;;;;31.00;24.00;;;;;-12.38;87.15;100453.94;4935791;28;102047;-66
2022/12/19 01:22:09;;;;;;;;;32.25;24.25;;;;;-12.42;87.43;100443.56;4931190;28;104071;-64
2022/12/19 01:24:36;;;;;;;;;25.25;22.00;;;;;-12.47;86.83;100429.75;4933203;28;102284;-64
2022/12/19 01:27:03;;;;;;;;;32.25;25.75;;;;;-12.64;84.20;100442.03;4933609;28;102447;-65
2022/12/19 01:29:31;;;;;;;;;32.25;23.75;;;;;-12.74;84.47;100425.63;4928933;28;102324;-64
2022/12/19 01:32:02;;;;;;;;;26.25;21.50;;;;;-12.82;83.08;100433.50;4932130;28;103998;-64
2022/12/19 01:34:29;;;;;;;;;20.00;16.00;;;;;-12.87;81.46;100426.59;4931627;28;102427;-65
2022/12/19 01:36:56;;;;;;;;;20.75;14.00;;;;;-12.78;84.09;100427.38;4935943;28;101960;-65
2022/12/19 01:39:23;;;;;;;;;12.00;8.00;;;;;-12.82;83.06;100424.81;4934140;28;102510;-65
2022/12/19 01:41:53;;;;;;;;;13.00;7.50;;;;;-12.83;81.97;100413.53;4934756;28;104008;-65
2022/12/19 01:44:23;;;;;;;;;22.25;15.00;;;;;-13.06;83.54;100402.44;4935187;28;102241;-64
2022/12/19 01:46:58;;;;;;;;;20.75;18.25;;;;;-13.24;83.85;100393.06;4941793;28;102111;-65
2022/12/19 01:49:34;;;;;;;;;28.75;21.25;;;;;-13.48;82.45;100394.94;4943563;28;104580;-64
2022/12/19 01:52:08;;;;;;;;;31.00;24.25;;;;;-13.61;82.46;100387.22;4915455;28;103992;-65
2022/12/19 01:54:42;;;;;;;;;29.75;28.00;;;;;-13.61;82.48;100394.16;4934862;28;102566;-63
2022/12/19 01:57:12;;;;;;;;;30.25;23.50;;;;;-13.69;83.19;100386.41;4932896;28;102119;-64
2022/12/19 01:59:47;;;;;;;;;29.50;24.25;;;;;-13.77;84.51;100371.69;4935172;28;102255;-65
2022/12/19 02:02:31;;;;;;;;;33.00;20.25;;;;;-13.55;85.30;100381.09;4939265;28;109722;-64
2022/12/19 02:05:02;;;;;;;;;27.75;19.75;;;;;-13.42;85.76;100363.72;4936677;28;102308;-65
2022/12/19 02:07:31;;;;;;;;;29.50;21.75;;;;;-13.30;87.12;100358.41;4934288;28;101896;-65
2022/12/19 02:10:11;;;;;;;;;16.50;16.00;;;;;-13.08;86.69;100370.34;4934190;28;102370;-65
2022/12/19 02:12:59;;;;;;;;;9.00;8.00;;;;;-12.99;87.20;100380.69;4913138;28;107902;-65
2022/12/19 02:16:13;;;;;;;;;8.00;6.75;;;;;-12.92;86.71;100366.75;4926936;28;102321;-65
2022/12/19 02:19:41;;;;;;;;;10.50;7.00;;;;;-12.90;83.45;100365.00;4921321;28;102276;-65
2022/12/19 02:22:38;;;;;;;;;9.00;6.25;;;;;-12.98;82.80;100359.00;4934504;28;102602;-66
2022/12/19 02:25:33;;;;;;;;;6.00;3.00;;;;;-13.05;81.60;100359.91;4931005;28;103021;-65
2022/12/19 02:28:26;;;;;;;;;7.00;5.00;;;;;-13.13;81.06;100354.81;4926534;28;102693;-65
2022/12/19 02:31:34;;;;;;;;;9.50;8.50;;;;;-13.16;81.19;100359.19;4929973;28;104410;-65
2022/12/19 02:34:27;;;;;;;;;5.00;4.00;;;;;-13.15;81.57;100363.53;4930291;28;102104;-65
2022/12/19 02:36:57;;;;;;;;;16.50;14.00;;;;;-13.31;81.67;100361.88;4925383;28;108632;-65
2022/12/19 02:39:45;;;;;;;;;10.00;9.00;;;;;-13.32;82.26;100357.53;4936635;28;102277;-65
2022/12/19 02:42:22;;;;;;;;;18.75;12.25;;;;;-13.35;83.39;100357.56;4933222;28;102025;-66
2022/12/19 02:44:53;;;;;;;;;15.00;13.00;;;;;-13.42;82.70;100358.50;4937907;28;102517;-65
2022/12/19 02:47:21;;;;;;;;;10.75;8.00;;;;;-13.41;82.78;100339.41;4933965;28;104262;-65
2022/12/19 02:49:48;;;;;;;;;9.00;6.00;;;;;-13.27;83.31;100353.19;4938740;28;103398;-65
2022/12/19 02:52:17;;;;;;;;;4.00;1.50;;;;;-13.27;82.20;100367.06;4941019;28;102207;-64
2022/12/19 02:54:50;;;;;;;;;8.25;6.50;;;;;-13.34;81.86;100369.72;4941125;28;102513;-64
2022/12/19 02:57:32;;;;;;;;;6.00;6.00;;;;;-13.31;81.76;100374.88;4931139;28;108763;-65
2022/12/19 03:00:10;;;;;;;;;12.50;8.50;;;;;-13.47;82.54;100370.69;4934966;28;102301;-64
2022/12/19 03:02:59;;;;;;;;;18.50;14.00;;;;;-13.54;82.10;100374.16;4939793;28;103787;-64
2022/12/19 03:05:39;;;;;;;;;11.00;8.00;;;;;-13.46;82.27;100380.22;4935708;28;102149;-65
2022/12/19 03:08:27;;;;;;;;;6.75;5.00;;;;;-13.49;82.29;100372.41;4937164;28;103741;-65
2022/12/19 03:10:59;;;;;;;;;13.50;12.25;;;;;-13.75;83.20;100339.63;4924514;28;102609;-64
2022/12/19 03:13:26;;;;;;;;;23.00;18.00;;;;;-13.69;83.54;100362.13;4933338;28;101982;-64
2022/12/19 03:15:53;;;;;;;;;24.25;21.50;;;;;-13.64;84.61;100353.41;4936659;28;102096;-64
2022/12/19 03:18:21;;;;;;;;;23.25;18.00;;;;;-13.76;84.57;100337.03;4932190;28;103697;-64
2022/12/19 03:21:06;;;;;;;;;35.25;25.50;;;;;-13.56;87.51;100336.94;4935694;28;102469;-65
2022/12/19 03:23:33;;;;;;;;;25.25;24.25;;;;;-13.62;83.48;100336.09;4937347;28;102415;-64
2022/12/19 03:26:07;;;;;;;;;29.50;25.25;;;;;-13.79;83.08;100318.88;4938874;28;102021;-65
2022/12/19 03:28:49;;;;;;;;;22.00;18.25;;;;;-13.71;85.82;100343.06;4931076;28;103980;-65
2022/12/19 03:31:20;;;;;;;;;25.25;17.50;;;;;-13.66;85.33;100338.72;4933374;28;102305;-65
2022/12/19 03:33:53;;;;;;;;;26.50;22.25;;;;;-13.54;86.95;100349.03;4932432;28;103646;-65
2022/12/19 03:36:26;;;;;;;;;18.50;15.00;;;;;-13.34;87.85;100351.50;4937744;28;102119;-64
2022/12/19 03:38:55;;;;;;;;;24.25;15.50;;;;;-13.24;88.32;100342.78;4936949;28;104028;-64
2022/12/19 03:44:24;;;;;;;;;12.00;11.00;;;;;-13.03;87.84;100352.09;4850350;28;104126;-65
2022/12/19 03:47:00;;;;;;;;;15.75;12.50;;;;;-13.24;86.38;100314.16;4947883;28;102186;-64
2022/12/19 03:49:27;;;;;;;;;19.25;17.00;;;;;-13.24;82.99;100351.44;4940174;28;103574;-64
2022/12/19 03:52:08;;;;;;;;;27.50;18.25;;;;;-13.35;83.26;100341.97;4946689;28;102120;-64
2022/12/19 03:54:40;;;;;;;;;20.00;15.25;;;;;-13.38;81.89;100342.88;4946738;28;101951;-65
2022/12/19 03:57:22;;;;;;;;;12.75;12.75;;;;;-13.49;81.69;100305.66;4940137;28;102427;-65
2022/12/19 04:00:17;;;;;;;;;12.25;11.50;;;;;-13.58;80.65;100329.13;4934348;28;108689;-65
2022/12/19 04:02:48;;;;;;;;;16.75;13.00;;;;;-13.55;82.61;100328.25;4939179;28;102128;-65
2022/12/19 04:05:22;;;;;;;;;9.25;8.00;;;;;-13.50;83.03;100324.72;4941137;28;102113;-65
2022/12/19 04:07:53;;;;;;;;;11.50;9.25;;;;;-13.46;82.65;100323.00;4932312;28;102425;-65
2022/12/19 04:10:25;;;;;;;;;6.25;5.50;;;;;-13.41;82.41;100329.00;4947377;28;103986;-65
2022/12/19 04:13:03;;;;;;;;;8.00;6.25;;;;;-13.45;83.31;100337.69;4943050;28;102678;-64
2022/12/19 04:15:57;;;;;;;;;23.00;17.00;;;;;-13.55;85.53;100315.25;4913279;28;102164;-65
2022/12/19 04:18:25;;;;;;;;;24.50;21.50;;;;;-13.78;83.80;100318.88;4896760;28;102349;-65
2022/12/19 04:21:16;;;;;;;;;24.25;17.00;;;;;-13.83;82.60;100323.22;4935808;28;104019;-65
2022/12/19 04:24:01;;;;;;;;;22.00;20.00;;;;;-13.93;82.85;100316.34;4933044;28;103448;-65
2022/12/19 04:26:30;;;;;;;;;32.75;29.00;;;;;-14.05;83.61;100313.81;4938535;28;102099;-65
2022/12/19 04:29:01;;;;;;;;;15.00;15.00;;;;;-14.17;84.58;100301.72;4937809;28;102389;-65
2022/12/19 04:31:29;;;;;;;;;31.50;23.50;;;;;-14.25;83.28;100289.66;4933800;28;103972;-65
2022/12/19 04:33:57;;;;;;;;;29.50;18.00;;;;;-14.07;84.11;100305.16;4933117;28;110660;-66
2022/12/19 04:36:25;;;;;;;;;14.50;10.00;;;;;-14.09;82.03;100301.69;4927748;28;102575;-65
2022/12/19 04:38:52;;;;;;;;;13.00;9.75;;;;;-14.01;83.19;100302.53;4935869;28;103309;-66
2022/12/19 04:41:19;;;;;;;;;24.00;19.00;;;;;-13.90;86.75;100299.84;4934216;28;104125;-65
2022/12/19 04:43:46;;;;;;;;;17.25;17.00;;;;;-13.84;85.89;100289.44;4947033;28;102526;-66
2022/12/19 04:46:13;;;;;;;;;20.25;17.00;;;;;-13.83;86.13;100289.44;4951130;28;102349;-66
2022/12/19 04:48:40;;;;;;;;;28.75;20.75;;;;;-13.55;87.69;100297.03;4933582;28;102683;-66
2022/12/19 04:51:07;;;;;;;;;11.00;7.00;;;;;-13.50;87.32;100297.84;4933392;28;104187;-65
2022/12/19 04:53:34;;;;;;;;;7.25;6.25;;;;;-13.52;85.23;100300.47;4932974;28;102415;-66
2022/12/19 04:56:04;;;;;;;;;11.50;9.00;;;;;-13.51;83.93;100298.75;4931162;28;102190;-65
2022/12/19 04:58:32;;;;;;;;;5.00;3.25;;;;;-13.46;84.07;100295.22;4937869;28;102237;-67
2022/12/19 05:01:06;;;;;;;;;5.50;5.50;;;;;-13.42;83.98;100286.53;4934860;28;104024;-65
2022/12/19 05:03:34;;;;;;;;;4.00;3.00;;;;;-13.45;83.77;100285.69;4936853;28;102262;-64
2022/12/19 05:06:05;;;;;;;;;4.50;3.00;;;;;-13.49;80.92;100296.97;4928965;28;102325;-66
2022/12/19 05:08:33;;;;;;;;;5.50;4.50;;;;;-13.67;81.19;100280.66;4931847;28;102650;-67
2022/12/19 05:11:01;;;;;;;;;13.50;10.25;;;;;-13.69;83.99;100266.81;4932774;28;104001;-65
2022/12/19 05:13:29;;;;;;;;;24.75;16.25;;;;;-13.85;82.80;100272.97;4934770;28;102399;-66
2022/12/19 05:15:57;;;;;;;;;23.00;17.25;;;;;-14.10;81.50;100264.47;4930832;28;102451;-64
2022/12/19 05:18:25;;;;;;;;;20.00;16.50;;;;;-14.33;80.28;100252.47;4933617;28;103369;-64
2022/12/19 05:20:52;;;;;;;;;12.50;11.50;;;;;-14.30;80.26;100244.63;4932856;28;104001;-63
2022/12/19 05:23:20;;;;;;;;;6.75;6.00;;;;;-14.21;80.28;100265.38;4923777;28;103695;-63
2022/12/19 05:25:47;;;;;;;;;3.50;3.50;;;;;-14.23;80.47;100272.34;4934972;28;102435;-64
2022/12/19 05:28:14;;;;;;;;;3.00;3.00;;;;;-14.34;81.28;100274.97;4932140;28;102121;-64
2022/12/19 05:30:41;;;;;;;;;6.50;6.00;;;;;-14.30;82.17;100271.47;4933906;28;104014;-64
2022/12/19 05:33:14;;;;;;;;;4.00;3.25;;;;;-14.27;83.49;100268.03;4933682;28;102276;-64
2022/12/19 05:35:41;;;;;;;;;3.50;3.00;;;;;-14.18;82.83;100267.97;4930577;28;102199;-64
2022/12/19 05:38:08;;;;;;;;;5.00;2.50;;;;;-14.17;83.42;100273.16;4932686;28;102190;-65
2022/12/19 05:40:35;;;;;;;;;3.00;1.00;;;;;-14.24;81.40;100278.38;4922810;28;103993;-64
2022/12/19 05:43:02;;;;;;;;;3.00;1.00;;;;;-14.29;81.47;100282.75;4938661;28;102351;-64
2022/12/19 05:45:29;;;;;;;;;6.00;2.00;;;;;-14.28;80.38;100284.47;4934019;28;102067;-65
2022/12/19 05:47:56;;;;;;;;;1.50;1.00;;;;;-14.33;80.34;100274.09;4938577;28;105976;-63
2022/12/19 05:50:27;;;;;;;;;7.00;5.00;;;;;-14.59;79.88;100269.03;4936616;28;104469;-63
2022/12/19 05:52:54;;;;;;;;;7.00;3.00;;;;;-14.74;79.18;100263.91;4933396;28;102525;-63
2022/12/19 05:55:21;;;;;;;;;7.00;7.00;;;;;-14.79;80.30;100272.56;4937605;28;102232;-64
2022/12/19 05:57:48;;;;;;;;;11.75;8.50;;;;;-14.87;79.88;100272.59;4938268;28;102199;-62
2022/12/19 06:00:15;;;;;;;;;4.00;3.00;;;;;-14.86;80.59;100269.13;4921812;28;104148;-64
2022/12/19 06:02:45;;;;;;;;;5.00;5.00;;;;;-14.83;80.97;100274.31;4927477;28;102476;-63
2022/12/19 06:05:12;;;;;;;;;5.00;3.00;;;;;-14.84;80.25;100280.38;4930366;28;102015;-64
2022/12/19 06:07:39;;;;;;;;;3.00;3.00;;;;;-14.78;80.35;100272.56;4932925;28;101986;-63
2022/12/19 06:10:06;;;;;;;;;3.50;3.00;;;;;-14.76;80.56;100252.66;4936806;28;104005;-62
2022/12/19 06:12:33;;;;;;;;;5.50;1.00;;;;;-14.77;79.83;100263.94;4913736;28;102323;-65
2022/12/19 06:15:00;;;;;;;;;1.00;1.00;;;;;-14.84;79.21;100259.59;4932915;28;103583;-63
2022/12/19 06:17:27;;;;;;;;;6.50;6.00;;;;;-14.99;79.12;100262.22;4936494;28;102422;-64
2022/12/19 06:19:54;;;;;;;;;7.00;7.00;;;;;-15.20;79.51;100268.31;4934492;28;104040;-64
2022/12/19 06:22:22;;;;;;;;;21.00;15.75;;;;;-15.35;79.93;100273.50;4927695;28;102817;-65
2022/12/19 06:24:49;;;;;;;;;15.75;12.25;;;;;-15.33;82.73;100266.59;4936090;28;102313;-64
2022/12/19 06:27:16;;;;;;;;;27.50;20.00;;;;;-15.24;83.38;100281.28;4938434;28;102498;-63
2022/12/19 06:29:43;;;;;;;;;18.50;14.00;;;;;-15.22;82.73;100279.56;4947912;28;108721;-63
2022/12/19 06:32:10;;;;;;;;;19.00;14.00;;;;;-15.21;82.79;100276.97;4927291;28;102368;-63
2022/12/19 06:34:37;;;;;;;;;26.50;18.25;;;;;-15.22;81.68;100269.19;4939234;28;102242;-64
2022/12/19 06:37:24;;;;;;;;;17.00;14.00;;;;;-15.19;81.51;100276.97;4939086;28;102938;-64
2022/12/19 06:39:51;;;;;;;;;12.00;6.00;;;;;-15.16;81.32;100274.38;4944685;28;103968;-64
2022/12/19 06:42:24;;;;;;;;;11.50;8.00;;;;;-15.10;82.39;100270.03;4942678;28;102912;-63
2022/12/19 06:44:53;;;;;;;;;19.50;15.75;;;;;-14.97;83.68;100281.25;4944044;28;102149;-64
2022/12/19 06:47:23;;;;;;;;;27.75;16.25;;;;;-14.91;83.11;100281.25;4944876;28;102442;-64
2022/12/19 06:49:50;;;;;;;;;36.75;30.25;;;;;-15.05;83.08;100267.44;4933556;28;104017;-64
2022/12/19 06:52:17;;;;;;;;;46.50;36.50;;;;;-15.12;83.53;100269.16;4949032;28;102933;-66
2022/12/19 06:54:44;;;;;;;;;49.75;43.25;;;;;-15.03;83.87;100286.44;4951144;28;102308;-63
2022/12/19 06:57:11;;;;;;;;;38.50;33.75;;;;;-15.04;82.03;100270.00;4944227;28;102303;-63
2022/12/19 06:59:38;;;;;;;;;30.50;22.75;;;;;-15.02;82.35;100277.81;4932065;28;104004;-63
2022/12/19 07:02:26;;;;;;;;;35.50;33.25;;;;;-14.92;86.04;100258.75;4934469;28;102451;-63
2022/12/19 07:05:02;;;;;;;;;35.75;28.50;;;;;-14.86;84.61;100268.28;4926574;28;102133;-63
2022/12/19 07:07:29;;;;;;;;;12.25;9.00;;;;;-14.78;83.82;100263.91;4932428;28;101971;-64
2022/12/19 07:09:56;;;;;;;;;34.50;24.75;;;;;-14.75;83.78;100241.41;4940625;28;104013;-64
2022/12/19 07:12:25;;;;;;;;;22.00;18.00;;;;;-14.50;83.78;100250.81;4941510;28;102200;-63
2022/12/19 07:14:52;;;;;;;;;26.00;17.00;;;;;-14.33;85.09;100265.44;4943863;28;102308;-64
2022/12/19 07:17:22;;;;;;;;;13.00;7.50;;;;;-14.12;85.93;100258.41;4943666;28;102210;-63
2022/12/19 07:19:54;;;;;;;;;14.00;10.00;;;;;-13.96;85.64;100267.00;4946509;28;104063;-64
2022/12/19 07:22:28;;;;;;;;;9.25;9.25;;;;;-13.81;85.23;100259.06;4931828;28;102422;-63
2022/12/19 07:24:55;;;;;;;;;6.25;6.00;;;;;-13.68;85.14;100254.66;4938178;28;102044;-63
2022/12/19 07:27:22;;;;;;;;;9.75;9.00;;;;;-13.62;83.21;100258.06;4934891;28;102807;-64
2022/12/19 07:29:49;;;;;;;;;7.00;6.25;;;;;-13.49;83.42;100253.63;4940114;28;104001;-64
2022/12/19 07:32:16;;;;;;;;;7.00;6.00;;;;;-13.30;84.17;100264.75;4934016;28;102190;-63
2022/12/19 07:34:43;;;;;;;;;7.00;6.25;;;;;-13.16;82.83;100253.34;4944254;28;102374;-63
2022/12/19 07:37:10;;;;;;;;;5.50;5.50;;;;;-13.07;82.57;100252.38;4942166;28;102104;-63
2022/12/19 07:39:37;;;;;;;;;9.00;3.00;;;;;-12.94;83.70;100251.38;4943333;28;104046;-64
2022/12/19 07:42:04;;;;;;;;;9.50;8.00;;;;;-12.89;84.38;100246.13;4950677;28;102147;-64
2022/12/19 07:44:31;;;;;;;;;12.00;9.75;;;;;-12.75;84.10;100246.84;4963344;28;102257;-63
2022/12/19 07:46:58;;;;;;;;;6.75;5.75;;;;;-12.55;85.69;100251.78;4952969;28;102360;-64
2022/12/19 07:49:25;;;;;;;;;9.75;6.25;;;;;-12.37;84.18;100239.41;4937112;28;103963;-63
2022/12/19 07:51:52;;;;;;;;;9.25;9.25;;;;;-12.22;84.46;100243.56;4940348;28;102214;-63
2022/12/19 07:54:19;;;;;;;;;5.50;4.00;;;;;-12.01;84.98;100240.66;4943918;28;102358;-63
2022/12/19 07:56:46;;;;;;;;;10.50;9.50;;;;;-11.91;84.41;100242.28;4933210;28;102191;-63
2022/12/19 07:59:13;;;;;;;;;13.00;13.00;;;;;-11.85;84.59;100239.59;4940390;28;104008;-64
2022/12/19 08:01:40;;;;;;;;;16.00;9.75;;;;;-11.65;86.10;100231.41;4940057;28;102092;-64
2022/12/19 08:04:07;;;;;;;;;13.00;8.00;;;;;-11.45;84.77;100220.66;4934148;28;102348;-63
2022/12/19 08:06:34;;;;;;;;;10.00;9.00;;;;;-11.27;85.50;100215.13;4944949;28;102023;-65
2022/12/19 08:09:07;;;;;;;;;10.50;9.75;;;;;-11.08;83.87;100211.31;4945910;28;104184;-65
2022/12/19 08:11:34;;;;;;;;;4.00;3.50;;;;;-10.92;82.32;100207.53;4938595;28;102356;-65
2022/12/19 08:14:01;;;;;;;;;3.75;1.00;;;;;-10.85;80.52;100208.28;4939531;28;102042;-63
2022/12/19 08:16:28;;;;;;;;;3.50;3.50;;;;;-10.67;82.04;100213.13;4935178;28;102038;-63
2022/12/19 08:18:55;;;;;;;;;6.00;4.50;;;;;-10.50;81.89;100212.81;4942484;28;104181;-63
2022/12/19 08:21:23;;;;;;;;;1.00;1.00;;;;;-10.32;81.95;100220.28;4941133;28;102986;-64
2022/12/19 08:23:50;;;;;;;;;1.50;0.75;;;;;-10.15;81.73;100217.28;4939053;28;101914;-64
2022/12/19 08:26:29;;;;;;;;;2.50;2.50;;;;;-9.98;81.56;100208.16;4943415;28;102374;-65
2022/12/19 08:29:04;;;;;;;;;21.25;15.00;;;;;-10.47;79.34;100184.00;4939423;28;109013;-65
2022/12/19 08:31:31;;;;;;;;;14.25;13.25;;;;;-10.33;79.76;100197.63;4943422;28;102472;-65
2022/12/19 08:33:58;;;;;;;;;12.25;9.75;;;;;-10.13;81.00;100211.09;4943359;28;102481;-63
2022/12/19 08:36:25;;;;;;;;;15.75;9.75;;;;;-9.91;81.73;100218.47;4947020;28;102332;-64
2022/12/19 08:38:52;;;;;;;;;9.00;3.00;;;;;-9.63;82.44;100211.69;4944612;28;104219;-64
2022/12/19 08:41:19;;;;;;;;;4.00;3.00;;;;;-9.44;83.23;100201.63;4945875;28;102233;-65
2022/12/19 08:43:52;;;;;;;;;4.00;3.00;;;;;-9.06;83.80;100214.66;4948697;28;102632;-65
2022/12/19 08:46:19;;;;;;;;;4.00;3.50;;;;;-8.80;84.12;100221.81;4947501;28;102388;-64
2022/12/19 08:48:46;;;;;;;;;4.50;4.00;;;;;-8.61;82.43;100217.78;4949129;28;108941;-64
2022/12/19 08:51:15;;;;;;;;;6.75;6.25;;;;;-8.39;82.26;100205.78;4942111;28;103058;-64
2022/12/19 08:53:45;;;;;;;;;7.00;6.50;;;;;-8.25;81.05;100211.47;4937900;28;101993;-64
2022/12/19 08:56:20;;;;;;;;;6.25;6.25;;;;;-8.01;81.31;100201.16;4945337;28;102078;-64
2022/12/19 08:58:50;;;;;;;;;6.00;3.00;;;;;-7.84;81.94;100197.13;4937979;28;108881;-64
2022/12/19 09:01:19;;;;;;;;;8.50;6.00;;;;;-7.98;77.59;100198.44;4950016;28;102120;-64
2022/12/19 09:03:46;;;;;;;;;29.75;21.75;;;;;-8.26;77.70;100203.63;4938600;28;102388;-65
2022/12/19 09:06:33;;;;;;;;;24.50;17.00;;;;;-8.15;77.36;100207.66;4932668;28;102735;-65
2022/12/19 09:09:03;;;;;;;;;23.75;19.50;;;;;-8.03;77.88;100180.22;4944002;28;103993;-64
2022/12/19 09:11:30;;;;;;;;;24.00;20.50;;;;;-8.01;76.38;100202.00;4942040;28;102226;-65
2022/12/19 09:13:57;;;;;;;;;23.00;22.50;;;;;-7.78;76.56;100198.66;4928582;28;102053;-65
2022/12/19 09:16:26;;;;;;;;;22.00;18.50;;;;;-7.76;78.06;100167.97;4933870;28;102084;-65
2022/12/19 09:18:57;;;;;;;;;32.00;26.00;;;;;-7.52;79.63;100167.19;4906866;28;104373;-65
2022/12/19 09:21:27;;;;;;;;;17.00;16.00;;;;;-7.31;77.82;100169.13;4933232;28;102370;-65
2022/12/19 09:23:57;;;;;;;;;15.75;15.50;;;;;-7.17;77.11;100154.66;4936142;28;102076;-65
2022/12/19 09:26:34;;;;;;;;;13.00;12.00;;;;;-6.91;74.65;100165.09;4947767;28;102374;-64
2022/12/19 09:29:02;;;;;;;;;7.25;6.25;;;;;-6.60;76.87;100155.22;4944044;28;104028;-65
2022/12/19 09:31:45;;;;;;;;;13.00;10.00;;;;;-6.27;76.14;100157.50;4944485;28;102268;-66
2022/12/19 09:34:12;;;;;;;;;11.00;5.50;;;;;-5.97;74.92;100167.72;4933249;28;102013;-65
2022/12/19 09:36:39;;;;;;;;;7.00;5.50;;;;;-5.64;76.00;100143.56;4944614;28;102314;-66
2022/12/19 09:39:06;;;;;;;;;8.75;7.00;;;;;-5.40;74.09;100150.44;4950200;28;104006;-66
2022/12/19 09:41:52;;;;;;;;;9.25;8.00;;;;;-5.08;74.64;100155.22;4944814;28;102369;-66
2022/12/19 09:44:47;;;;;;;;;9.33;4.67;;;;;-4.69;73.65;100152.66;4949613;28;101924;-66
2022/12/19 09:47:24;;;;;;;;;4.00;4.00;;;;;-4.40;73.96;100140.78;4936320;28;102306;-67
2022/12/19 09:49:53;;;;;;;;;1.00;1.00;;;;;-4.21;72.17;100138.16;4931026;28;108581;-67
2022/12/19 09:52:32;;;;;;;;;3.33;3.33;;;;;-4.07;72.86;100125.16;4949282;28;102646;-66
2022/12/19 09:55:14;;;;;;;;;3.00;3.00;;;;;-3.89;71.75;100126.06;4946532;28;102146;-66
2022/12/19 09:58:04;;;;;;;;;7.00;6.00;;;;;-3.82;71.68;100122.19;4947781;28;102360;-67
2022/12/19 10:00:46;;;;;;;;;4.67;4.00;;;;;-3.74;72.01;100123.53;4931943;28;108934;-67
2022/12/19 10:03:44;;;;;;;;;4.67;3.00;;;;;-3.70;70.24;100117.19;4921747;28;102407;-66
2022/12/19 10:06:18;;;;;;;;;6.33;4.00;;;;;-3.58;70.60;100109.59;4935106;28;102075;-67
2022/12/19 10:09:12;;;;;;;;;7.00;6.00;;;;;-3.43;70.52;100095.63;4936675;28;102360;-67
2022/12/19 10:12:20;;;;;;;;;6.67;4.00;;;;;-3.31;69.81;100089.69;4920498;28;109865;-67
2022/12/19 10:15:16;;;;;;;;;6.00;5.33;;;;;-3.21;70.33;100090.94;4922687;28;102303;-68
2022/12/19 10:17:46;;;;;;;;;5.33;4.00;;;;;-3.10;70.11;100083.31;4938293;28;102301;-67
2022/12/19 10:20:28;;;;;;;;;7.00;6.33;;;;;-3.03;68.82;100084.72;4943570;28;104505;-67
2022/12/19 10:23:15;;;;;;;;;12.67;7.00;;;;;-2.91;69.27;100094.66;4935937;28;108692;-68
2022/12/19 10:25:52;;;;;;;;;7.00;7.00;;;;;-2.86;67.40;100082.03;4945284;28;102202;-67
2022/12/19 10:28:19;;;;;;;;;7.00;6.33;;;;;-2.73;68.85;100080.44;4949811;28;102026;-67
2022/12/19 10:31:02;;;;;;;;;4.67;4.00;;;;;-2.70;68.32;100082.91;4947841;28;102393;-68
2022/12/19 10:34:07;;;;;;;;;2.00;2.00;;;;;-2.68;68.49;100076.69;4930005;28;108218;-69
2022/12/19 10:36:42;;;;;;;;;4.00;4.00;;;;;-2.70;67.13;100071.47;4933317;28;102438;-68
2022/12/19 10:39:55;;;;;;;;;5.00;4.00;;;;;-2.60;69.07;100067.41;4931480;28;102013;-68
2022/12/19 10:42:48;;;;;;;;;2.00;1.33;;;;;-2.47;68.18;100067.59;4932228;28;101967;-69
2022/12/19 10:45:18;;;;;;;;;10.00;4.33;;;;;-2.65;66.99;100058.84;4938291;28;108446;-69
2022/12/19 10:47:48;;;;;;;;;10.00;8.00;;;;;-2.80;68.37;100052.59;4937515;28;102660;-69
2022/12/19 10:50:20;;;;;;;;;8.67;5.00;;;;;-2.58;69.36;100051.44;4944482;28;102465;-69
2022/12/19 10:53:02;;;;;;;;;4.33;4.00;;;;;-2.45;67.67;100045.41;4942408;28;102122;-70
2022/12/19 10:55:52;;;;;;;;;6.33;5.00;;;;;-2.43;68.16;100032.09;4936587;28;108606;-70
2022/12/19 10:58:35;;;;;;;;;5.00;2.67;;;;;-2.27;67.13;100043.53;4936633;28;102159;-69
2022/12/19 11:01:12;;;;;;;;;5.00;4.33;;;;;-2.12;67.66;100039.19;4922773;28;102155;-71
2022/12/19 11:03:43;;;;;;;;;3.33;2.00;;;;;-2.01;67.83;100037.63;4924337;28;101955;-70
2022/12/19 11:06:33;;;;;;;;;4.67;4.00;;;;;-2.03;65.67;100026.25;4935784;28;103823;-71
2022/12/19 11:09:26;;;;;;;;;2.00;2.00;;;;;-1.97;65.60;100028.53;4936662;28;102211;-71
2022/12/19 11:12:10;;;;;;;;;4.00;2.00;;;;;-1.95;67.80;100025.81;4938876;28;102088;-71
2022/12/19 11:15:10;;;;;;;;;1.33;1.00;;;;;-1.96;66.30;100017.00;4936798;28;102300;-71
2022/12/19 11:18:16;;;;;;;;;1.33;1.00;;;;;-1.81;65.72;100024.09;4933066;28;109604;-71
2022/12/19 11:21:05;;;;;;;;;2.00;2.00;;;;;-1.81;66.32;99996.72;4950817;28;102601;-71
2022/12/19 11:23:58;;;;;;;;;6.33;4.00;;;;;-1.65;66.16;100016.09;4945808;28;102072;-72
2022/12/19 11:26:47;;;;;;;;;5.00;3.33;;;;;-1.96;67.15;100014.34;4939724;28;102314;-72
2022/12/19 11:29:48;;;;;;;;;7.00;6.33;;;;;-2.02;66.44;100001.44;4945513;28;109898;-72
2022/12/19 11:32:39;;;;;;;;;10.33;8.00;;;;;-2.16;68.11;99993.44;4944880;28;102465;-72
2022/12/19 11:35:28;;;;;;;;;18.67;13.33;;;;;-2.11;66.65;100001.97;4948523;28;102119;-71
2022/12/19 11:38:07;;;;;;;;;11.33;9.33;;;;;-2.13;67.40;99998.56;4933098;28;102009;-72
2022/12/19 11:40:50;;;;;;;;;19.33;14.00;;;;;-2.28;65.96;99988.84;4941189;28;103086;-71